Terminal Aerodrome Forecast
Issued by NWS

Home | Current Version | Previous Version | Text Only | Print | Product List | Glossary On
Versions: 1 2 3 4 5 6 7 8 9 10 11 12 13 14 15 16 17 18 19 20 21 22
000
FTUS43 KTOP 230000 AAA
TAFMHK
TAF AMD
KMHK 230058Z 2301/2324 20012KT 6SM BR OVC020
     FM230700 20010KT 3SM -DZ BR OVC004
     FM230900 18007KT 3SM -DZ BR VCTS BKN006 OVC020CB
     FM231800 31018G28KT 5SM -RASN BR BKN015=

USA.gov is the U.S. government's official web portal to all federal, state and local government web resources and services.